Time;durP1;ratioP1;P1;durP2;ratioP2;P2;SDS_P1;SDS_P2;PMS_P1;PMS_P2;Temp;Humidity;BMP_temperature;BMP_pressure;BME280_temperature;BME280_humidity;BME280_pressure;Samples;Min_cycle;Max_cycle;Signal;HPM_P1;HPM_P2
2022/05/18 00:00:58;;;;;;;19.63;12.75;;;;;13.60;96889.00;;;;8396487;28;20232;-68
2022/05/18 00:05:01;;;;;;;22.23;14.07;;;;;13.50;96896.00;;;;8404876;28;20662;-67
2022/05/18 00:09:06;;;;;;;21.63;12.80;;;;;13.50;96895.00;;;;8403888;28;20772;-68
2022/05/18 00:13:10;;;;;;;19.73;13.25;;;;;13.40;96897.00;;;;8404778;28;20225;-67
2022/05/18 00:17:13;;;;;;;18.55;12.30;;;;;13.40;96893.00;;;;8407801;28;20229;-68
2022/05/18 00:21:16;;;;;;;23.33;11.52;;;;;13.40;96903.00;;;;8410795;28;20307;-67
2022/05/18 00:25:23;;;;;;;18.92;11.15;;;;;13.30;96910.00;;;;8401093;28;20755;-69
2022/05/18 00:29:27;;;;;;;24.30;12.68;;;;;13.20;96912.00;;;;8394154;28;20678;-68
2022/05/18 00:33:30;;;;;;;20.20;12.45;;;;;13.10;96911.00;;;;8407883;28;20231;-68
2022/05/18 00:37:33;;;;;;;22.75;13.50;;;;;13.10;96914.00;;;;8406845;28;20264;-68
2022/05/18 00:41:38;;;;;;;22.08;12.70;;;;;13.00;96912.00;;;;8411275;28;20573;-67
2022/05/18 00:45:41;;;;;;;22.83;12.88;;;;;12.90;96908.00;;;;8412623;28;20219;-67
2022/05/18 00:49:50;;;;;;;26.10;14.38;;;;;12.80;96906.00;;;;8413505;28;20635;-67
2022/05/18 00:53:57;;;;;;;31.38;16.40;;;;;12.90;96916.00;;;;8407785;28;20316;-67
2022/05/18 00:58:11;;;;;;;24.92;13.82;;;;;13.00;96919.00;;;;8409819;28;20228;-67
2022/05/18 01:02:14;;;;;;;21.75;14.45;;;;;13.10;96911.00;;;;8407133;28;20336;-68
2022/05/18 01:06:27;;;;;;;30.38;15.32;;;;;13.20;96915.00;;;;8405454;28;20234;-67
2022/05/18 01:10:30;;;;;;;28.55;15.65;;;;;13.30;96915.00;;;;8406198;28;20234;-68
2022/05/18 01:14:40;;;;;;;26.88;15.13;;;;;13.30;96919.00;;;;8405947;28;20318;-71
2022/05/18 01:18:43;;;;;;;26.90;15.15;;;;;13.40;96918.00;;;;8404855;28;20309;-65
2022/05/18 01:22:52;;;;;;;30.83;15.48;;;;;13.50;96920.00;;;;8402197;28;20232;-71
2022/05/18 01:27:00;;;;;;;29.55;15.15;;;;;13.60;96922.00;;;;8402737;28;20240;-66
2022/05/18 01:31:04;;;;;;;23.55;13.48;;;;;13.70;96917.00;;;;8401570;28;20220;-66
2022/05/18 01:35:09;;;;;;;25.00;13.80;;;;;13.80;96924.00;;;;8400879;28;20220;-68
2022/05/18 01:39:15;;;;;;;23.52;12.88;;;;;13.80;96922.00;;;;8396429;28;20847;-68
2022/05/18 01:43:24;;;;;;;22.58;12.50;;;;;13.80;96923.00;;;;8399246;28;20891;-68
2022/05/18 01:47:33;;;;;;;21.88;11.32;;;;;13.70;96919.00;;;;8407014;28;20233;-67
2022/05/18 01:51:43;;;;;;;20.52;12.07;;;;;13.60;96921.00;;;;8399877;28;20222;-68
2022/05/18 01:55:46;;;;;;;21.88;11.23;;;;;13.60;96927.00;;;;8402902;28;20316;-65
2022/05/18 01:59:51;;;;;;;18.70;11.15;;;;;13.60;96921.00;;;;8405436;28;20639;-66
2022/05/18 02:03:54;;;;;;;21.60;11.98;;;;;13.60;96928.00;;;;8407200;28;20231;-69
2022/05/18 02:07:58;;;;;;;17.63;11.30;;;;;13.50;96938.00;;;;8394436;28;20246;-67
2022/05/18 02:12:01;;;;;;;22.27;13.07;;;;;13.50;96932.00;;;;8410115;28;20222;-68
2022/05/18 02:16:06;;;;;;;20.00;12.43;;;;;13.50;96926.00;;;;8409846;28;20309;-68
2022/05/18 02:20:11;;;;;;;28.27;18.02;;;;;13.50;96927.00;;;;8408403;28;20221;-67
2022/05/18 02:24:14;;;;;;;28.35;17.92;;;;;13.80;96939.00;;;;8410384;28;20227;-66
2022/05/18 02:28:17;;;;;;;27.88;17.45;;;;;14.10;96934.00;;;;8415392;28;20237;-67
2022/05/18 02:32:22;;;;;;;17.45;11.77;;;;;14.20;96933.00;;;;8413772;28;20230;-67
2022/05/18 02:36:26;;;;;;;15.30;11.70;;;;;14.00;96943.00;;;;8415996;28;20309;-67
2022/05/18 02:40:30;;;;;;;23.33;13.32;;;;;13.80;96943.00;;;;8411925;28;20313;-67
2022/05/18 02:44:33;;;;;;;20.08;12.25;;;;;13.70;96943.00;;;;8410852;28;20230;-70
2022/05/18 02:48:38;;;;;;;21.15;11.55;;;;;13.60;96945.00;;;;8403090;28;20396;-69
2022/05/18 02:52:41;;;;;;;26.20;15.07;;;;;13.60;96946.00;;;;8410688;28;20296;-68
2022/05/18 02:56:44;;;;;;;24.02;13.93;;;;;13.60;96957.00;;;;8413361;28;20729;-68
2022/05/18 03:00:47;;;;;;;21.63;12.88;;;;;13.50;96956.00;;;;8409603;28;20235;-70
2022/05/18 03:04:52;;;;;;;22.92;12.40;;;;;13.40;96959.00;;;;8420388;22;20235;-67
2022/05/18 03:08:55;;;;;;;20.67;11.75;;;;;13.30;96954.00;;;;8410812;28;20492;-71
2022/05/18 03:12:58;;;;;;;20.42;12.60;;;;;13.20;96961.00;;;;8408500;28;20225;-71
2022/05/18 03:17:02;;;;;;;23.30;10.38;;;;;13.10;96959.00;;;;8415782;28;20317;-71
2022/05/18 03:25:26;;;;;;;20.65;10.60;;;;;12.80;96970.00;;;;8413032;28;20236;-68
2022/05/18 03:29:30;;;;;;;19.98;11.13;;;;;12.80;96976.00;;;;8425204;28;20230;-69
2022/05/18 03:33:34;;;;;;;18.08;11.02;;;;;12.70;96969.00;;;;8414075;28;20588;-72
2022/05/18 03:37:39;;;;;;;18.52;10.43;;;;;12.70;96973.00;;;;8407003;28;20227;-70
2022/05/18 03:41:43;;;;;;;22.15;11.45;;;;;12.60;96980.00;;;;8407287;28;20640;-71
2022/05/18 03:45:46;;;;;;;18.00;11.63;;;;;12.60;96981.00;;;;8416242;28;20474;-71
2022/05/18 03:49:49;;;;;;;21.83;11.00;;;;;12.60;96987.00;;;;8412731;28;20218;-69
2022/05/18 03:53:54;;;;;;;19.40;11.13;;;;;12.60;97001.00;;;;8417852;28;20228;-68
2022/05/18 03:57:57;;;;;;;18.23;10.48;;;;;12.70;97016.00;;;;8416072;28;20579;-67
2022/05/18 04:02:00;;;;;;;19.77;11.05;;;;;12.80;97002.00;;;;8409119;28;20238;-67
2022/05/18 04:06:05;;;;;;;16.55;10.75;;;;;12.80;97010.00;;;;8397875;28;20221;-68
2022/05/18 04:10:11;;;;;;;20.98;11.07;;;;;12.90;97007.00;;;;8409318;28;20243;-68
2022/05/18 04:14:14;;;;;;;16.77;11.05;;;;;13.10;97014.00;;;;8407322;28;20736;-70
2022/05/18 04:18:17;;;;;;;22.02;11.52;;;;;13.30;97019.00;;;;8407789;28;20426;-68
2022/05/18 04:22:23;;;;;;;20.23;12.10;;;;;13.40;97027.00;;;;8409577;28;20309;-69
2022/05/18 04:26:28;;;;;;;18.63;11.80;;;;;13.60;97026.00;;;;8406806;28;20904;-69
2022/05/18 04:30:31;;;;;;;21.83;12.82;;;;;13.80;97041.00;;;;8411723;28;20269;-69
2022/05/18 04:34:35;;;;;;;18.35;11.73;;;;;14.10;97040.00;;;;8408944;28;20225;-68
2022/05/18 04:38:38;;;;;;;17.58;12.55;;;;;14.30;97051.00;;;;8408958;28;20239;-69
2022/05/18 04:42:43;;;;;;;21.90;14.38;;;;;14.70;97052.00;;;;8410997;28;20235;-68
2022/05/18 04:46:46;;;;;;;24.48;14.30;;;;;15.10;97065.00;;;;8408405;28;20222;-70
2022/05/18 04:50:50;;;;;;;21.95;14.52;;;;;15.40;97070.00;;;;8410112;28;20275;-67
2022/05/18 04:54:53;;;;;;;25.63;16.80;;;;;15.60;97065.00;;;;8404720;28;20365;-69
2022/05/18 04:58:58;;;;;;;26.73;17.10;;;;;15.80;97072.00;;;;8406727;28;20229;-66
2022/05/18 05:03:01;;;;;;;24.48;16.83;;;;;16.00;97073.00;;;;8404115;28;20234;-70
2022/05/18 05:07:05;;;;;;;26.50;15.63;;;;;16.30;97080.00;;;;8419053;28;20227;-66
2022/05/18 05:11:09;;;;;;;25.13;15.23;;;;;16.70;97079.00;;;;8417145;28;20310;-68
2022/05/18 05:15:14;;;;;;;24.67;15.18;;;;;16.90;97089.00;;;;8404427;28;20219;-69
2022/05/18 05:19:18;;;;;;;18.90;13.35;;;;;17.20;97092.00;;;;8405298;28;20231;-69
2022/05/18 05:23:24;;;;;;;19.67;13.80;;;;;17.40;97096.00;;;;8409860;28;20311;-66
2022/05/18 05:27:27;;;;;;;20.08;13.27;;;;;17.70;97098.00;;;;8407062;28;20580;-68
2022/05/18 05:31:32;;;;;;;23.23;14.05;;;;;18.00;97090.00;;;;8410588;28;20235;-68
2022/05/18 05:35:36;;;;;;;20.65;13.23;;;;;18.20;97097.00;;;;8407395;28;20223;-66
2022/05/18 05:39:39;;;;;;;15.13;12.68;;;;;18.60;97092.00;;;;8410450;28;20638;-68
2022/05/18 05:43:43;;;;;;;15.80;12.18;;;;;18.70;97096.00;;;;8399570;28;20318;-67
2022/05/18 05:47:47;;;;;;;15.35;11.75;;;;;18.70;97094.00;;;;8413105;28;20229;-67
2022/05/18 05:51:54;;;;;;;13.35;10.90;;;;;18.80;97099.00;;;;8405110;28;20219;-67
2022/05/18 05:55:58;;;;;;;15.23;10.68;;;;;18.90;97089.00;;;;8395670;28;20826;-68
2022/05/18 06:00:02;;;;;;;17.10;11.25;;;;;19.20;97093.00;;;;8414446;28;20553;-68
2022/05/18 06:04:08;;;;;;;14.45;10.60;;;;;19.40;97095.00;;;;8409408;28;20231;-70
2022/05/18 06:08:17;;;;;;;15.27;10.23;;;;;19.50;97099.00;;;;8412648;28;20220;-67
2022/05/18 06:12:20;;;;;;;11.77;9.95;;;;;19.80;97106.00;;;;8416183;28;20310;-66
2022/05/18 06:16:23;;;;;;;15.77;10.02;;;;;20.00;97102.00;;;;8411029;28;20318;-65
2022/05/18 06:20:29;;;;;;;15.27;10.02;;;;;20.20;97114.00;;;;8415166;28;20564;-68
2022/05/18 06:24:32;;;;;;;15.90;10.48;;;;;20.40;97117.00;;;;8417855;28;20245;-70
2022/05/18 06:28:36;;;;;;;14.02;9.73;;;;;20.40;97127.00;;;;8415361;28;20219;-72
2022/05/18 06:32:40;;;;;;;12.25;9.30;;;;;20.60;97138.00;;;;8413044;28;20219;-67
2022/05/18 06:36:44;;;;;;;15.52;9.13;;;;;21.30;97140.00;;;;8410719;28;20211;-67
2022/05/18 06:45:10;;;;;;;13.95;8.40;;;;;22.30;97152.00;;;;8413412;28;20234;-71
2022/05/18 06:49:13;;;;;;;9.93;7.65;;;;;23.20;97155.00;;;;8413834;28;20223;-67
2022/05/18 06:53:18;;;;;;;9.98;7.30;;;;;23.80;97158.00;;;;8416857;28;20227;-67
2022/05/18 06:57:21;;;;;;;8.18;7.28;;;;;24.10;97157.00;;;;8415142;28;20719;-70
2022/05/18 07:01:26;;;;;;;9.77;6.85;;;;;24.50;97161.00;;;;8408779;28;20236;-66
2022/05/18 07:05:31;;;;;;;7.10;6.40;;;;;24.90;97156.00;;;;8373181;28;20225;-66
2022/05/18 07:09:36;;;;;;;8.98;6.95;;;;;25.30;97157.00;;;;8377804;28;20305;-67
2022/05/18 07:13:39;;;;;;;9.82;7.18;;;;;25.50;97151.00;;;;8372464;28;20234;-69
2022/05/18 07:17:43;;;;;;;8.52;6.25;;;;;25.70;97151.00;;;;8379665;28;20361;-69
2022/05/18 07:22:05;;;;;;;9.48;6.80;;;;;26.20;97152.00;;;;8375934;28;20223;-69
2022/05/18 07:26:09;;;;;;;7.40;6.68;;;;;26.40;97157.00;;;;8373997;28;20339;-69
2022/05/18 07:30:15;;;;;;;13.85;7.38;;;;;26.20;97170.00;;;;8375706;28;20220;-68
2022/05/18 07:34:22;;;;;;;8.75;6.97;;;;;26.10;97163.00;;;;8375168;28;20234;-66
2022/05/18 07:38:27;;;;;;;10.23;7.07;;;;;25.90;97163.00;;;;8376769;28;20228;-69
2022/05/18 07:42:42;;;;;;;10.25;6.53;;;;;26.50;97170.00;;;;8375133;28;20311;-71
2022/05/18 07:46:45;;;;;;;23.50;8.60;;;;;27.00;97163.00;;;;8379120;28;20235;-68
2022/05/18 07:50:49;;;;;;;9.50;6.65;;;;;27.30;97167.00;;;;8377917;28;20297;-73
2022/05/18 07:54:53;;;;;;;11.90;7.28;;;;;27.70;97172.00;;;;8370819;28;20218;-68
2022/05/18 07:58:57;;;;;;;8.32;6.68;;;;;28.20;97176.00;;;;8369893;28;20410;-67
2022/05/18 08:03:00;;;;;;;7.40;6.57;;;;;28.70;97184.00;;;;8392620;28;20680;-68
2022/05/18 08:07:04;;;;;;;9.65;6.45;;;;;29.00;97183.00;;;;8414215;28;20298;-67
2022/05/18 08:15:30;;;;;;;10.32;6.78;;;;;29.20;97182.00;;;;8411909;28;20238;-69
2022/05/18 08:19:33;;;;;;;14.00;6.68;;;;;29.60;97189.00;;;;8417267;28;20325;-68
2022/05/18 08:23:36;;;;;;;10.32;6.70;;;;;29.60;97185.00;;;;8414927;28;20239;-69
2022/05/18 08:27:42;;;;;;;6.57;5.95;;;;;29.60;97186.00;;;;8414155;28;20227;-68
2022/05/18 08:31:47;;;;;;;8.18;6.78;;;;;29.70;97185.00;;;;8404853;28;20668;-72
2022/05/18 08:35:52;;;;;;;8.05;6.45;;;;;30.10;97193.00;;;;8403673;28;20581;-69
2022/05/18 08:39:55;;;;;;;6.75;6.07;;;;;30.10;97191.00;;;;8413476;28;20305;-69
2022/05/18 08:44:02;;;;;;;8.23;5.85;;;;;30.20;97183.00;;;;8415333;28;20223;-69
2022/05/18 08:48:21;;;;;;;12.07;6.50;;;;;30.30;97186.00;;;;8413609;28;20246;-70
2022/05/18 08:52:44;;;;;;;6.47;5.47;;;;;30.00;97187.00;;;;8407287;28;20298;-68
2022/05/18 08:56:47;;;;;;;9.30;5.00;;;;;30.40;97195.00;;;;8409876;28;20752;-71
2022/05/18 09:00:56;;;;;;;8.57;5.82;;;;;30.80;97192.00;;;;8412804;28;20241;-67
2022/05/18 09:05:04;;;;;;;15.32;5.32;;;;;30.70;97193.00;;;;8414084;28;20267;-71
2022/05/18 09:13:51;;;;;;;8.40;4.45;;;;;31.20;97191.00;;;;8409920;28;20227;-72
2022/05/18 09:17:57;;;;;;;5.15;4.65;;;;;31.50;97190.00;;;;8413220;28;20995;-67
2022/05/18 09:22:13;;;;;;;5.53;4.97;;;;;31.50;97196.00;;;;8409704;28;20229;-66
2022/05/18 09:26:32;;;;;;;4.82;4.32;;;;;32.00;97196.00;;;;8405268;28;20665;-71
2022/05/18 09:30:48;;;;;;;5.70;4.20;;;;;32.30;97203.00;;;;8407646;28;20294;-68
2022/05/18 09:35:13;;;;;;;5.05;4.53;;;;;32.70;97205.00;;;;8407751;28;20215;-66
2022/05/18 09:39:21;;;;;;;5.68;4.32;;;;;33.20;97199.00;;;;8415784;28;20322;-66
2022/05/18 09:43:30;;;;;;;7.70;4.90;;;;;33.40;97195.00;;;;8418813;28;20802;-66
2022/05/18 09:47:39;;;;;;;4.90;3.90;;;;;33.50;97201.00;;;;8418022;28;20587;-70
2022/05/18 09:51:43;;;;;;;6.43;4.70;;;;;33.60;97203.00;;;;8401983;28;20241;-69
2022/05/18 09:55:50;;;;;;;5.13;4.63;;;;;33.90;97205.00;;;;8407725;28;20231;-66
2022/05/18 09:59:56;;;;;;;5.65;5.07;;;;;33.80;97200.00;;;;8412126;28;20709;-71
2022/05/18 10:08:33;;;;;;;5.70;4.10;;;;;33.80;97199.00;;;;8419185;28;20246;-66
2022/05/18 10:12:43;;;;;;;5.40;3.30;;;;;34.10;97194.00;;;;8411951;28;20231;-66
2022/05/18 10:17:00;;;;;;;4.18;3.78;;;;;33.80;97198.00;;;;8405887;28;20238;-69
2022/05/18 10:21:11;;;;;;;4.45;2.97;;;;;33.80;97197.00;;;;8409210;28;20307;-68
2022/05/18 10:25:35;;;;;;;3.28;3.08;;;;;34.00;97195.00;;;;8408326;28;20228;-71
2022/05/18 10:29:41;;;;;;;4.05;3.00;;;;;34.60;97183.00;;;;8410010;28;20231;-73
2022/05/18 10:33:44;;;;;;;7.30;3.25;;;;;34.80;97188.00;;;;8409568;28;20227;-73
2022/05/18 10:37:47;;;;;;;5.55;3.63;;;;;34.80;97180.00;;;;8409667;28;20713;-69
2022/05/18 10:41:50;;;;;;;12.52;3.60;;;;;34.70;97180.00;;;;8416672;28;20318;-71
2022/05/18 10:45:57;;;;;;;5.38;2.85;;;;;34.70;97188.00;;;;8412313;28;20318;-72
2022/05/18 10:50:24;;;;;;;4.80;3.40;;;;;34.70;97187.00;;;;8403409;28;20232;-71
2022/05/18 10:54:30;;;;;;;4.10;3.70;;;;;34.50;97179.00;;;;8413817;28;20239;-69
2022/05/18 10:58:37;;;;;;;5.15;2.95;;;;;34.10;97183.00;;;;8412645;28;20224;-71
2022/05/18 11:02:49;;;;;;;5.70;3.05;;;;;34.20;97176.00;;;;8410502;28;20257;-70
2022/05/18 11:06:52;;;;;;;4.05;3.30;;;;;34.80;97170.00;;;;8413606;28;20223;-68
2022/05/18 11:11:05;;;;;;;3.60;3.30;;;;;35.00;97172.00;;;;8415678;28;20302;-68
2022/05/18 11:15:22;;;;;;;3.40;2.50;;;;;34.80;97166.00;;;;8408991;28;20229;-71
2022/05/18 11:19:43;;;;;;;6.60;3.10;;;;;34.60;97164.00;;;;8411498;28;20251;-72
2022/05/18 11:23:57;;;;;;;5.20;3.10;;;;;33.90;97155.00;;;;8410760;28;20227;-68
2022/05/18 11:28:14;;;;;;;4.75;2.88;;;;;33.60;97153.00;;;;8410613;28;20234;-69
2022/05/18 11:32:26;;;;;;;3.80;3.00;;;;;33.90;97158.00;;;;8408450;28;20304;-68
2022/05/18 11:36:41;;;;;;;3.20;2.88;;;;;34.40;97156.00;;;;8408257;28;20314;-68
2022/05/18 11:40:55;;;;;;;4.50;2.63;;;;;34.90;97147.00;;;;8407636;28;20585;-80
2022/05/18 11:45:09;;;;;;;3.97;2.55;;;;;35.20;97160.00;;;;8408519;28;20970;-70
2022/05/18 11:49:20;;;;;;;3.10;2.70;;;;;35.50;97156.00;;;;8412533;28;20320;-68
2022/05/18 11:53:40;;;;;;;2.67;2.47;;;;;35.70;97156.00;;;;8413197;28;20968;-76
2022/05/18 11:57:48;;;;;;;4.18;2.67;;;;;35.60;97152.00;;;;8397359;28;20251;-86
2022/05/18 12:02:01;;;;;;;3.95;2.70;;;;;34.60;97156.00;;;;8408989;28;21007;-78
2022/05/18 12:06:44;;;;;;;2.55;2.40;;;;;34.10;97155.00;;;;8413521;28;20284;-71
2022/05/18 12:10:52;;;;;;;3.17;2.15;;;;;34.30;97149.00;;;;8396798;28;20247;-68
2022/05/18 12:15:06;;;;;;;4.57;2.33;;;;;34.20;97156.00;;;;8403841;28;20330;-75
2022/05/18 12:19:17;;;;;;;3.90;2.60;;;;;34.10;97150.00;;;;8411646;28;20298;-72
2022/05/18 12:23:28;;;;;;;3.85;2.72;;;;;34.30;97147.00;;;;8414406;28;21071;-71
2022/05/18 12:27:33;;;;;;;4.70;2.40;;;;;34.10;97145.00;;;;8406919;28;20755;-74
2022/05/18 12:31:38;;;;;;;2.97;2.78;;;;;33.50;97137.00;;;;8411930;28;20267;-74
2022/05/18 12:35:51;;;;;;;6.90;2.85;;;;;32.70;97139.00;;;;8405553;28;20679;-69
2022/05/18 12:40:19;;;;;;;2.90;2.60;;;;;32.30;97142.00;;;;8403323;28;20245;-76
2022/05/18 12:44:27;;;;;;;2.50;2.30;;;;;31.70;97138.00;;;;8399412;28;20677;-70
2022/05/18 12:48:39;;;;;;;6.10;2.75;;;;;30.80;97135.00;;;;8410133;28;20773;-73
2022/05/18 12:52:51;;;;;;;3.45;2.53;;;;;30.80;97121.00;;;;8407439;28;20319;-71
2022/05/18 12:57:11;;;;;;;2.40;2.13;;;;;30.70;97130.00;;;;8413476;28;20229;-68
2022/05/18 13:01:17;;;;;;;3.28;2.67;;;;;30.40;97128.00;;;;8413113;28;20298;-71
2022/05/18 13:05:35;;;;;;;3.83;2.10;;;;;30.40;97111.00;;;;8412682;28;20272;-70
2022/05/18 13:09:40;;;;;;;10.18;3.03;;;;;30.50;97127.00;;;;8409099;28;20227;-73
2022/05/18 13:14:20;;;;;;;2.40;2.20;;;;;30.70;97115.00;;;;8405716;28;20219;-72
2022/05/18 13:18:30;;;;;;;2.42;2.08;;;;;31.40;97113.00;;;;8410996;28;20702;-71
2022/05/18 13:22:50;;;;;;;4.07;2.40;;;;;32.30;97116.00;;;;8403990;28;20231;-73
2022/05/18 13:26:53;;;;;;;5.63;2.50;;;;;33.30;97111.00;;;;8409196;28;20626;-70
2022/05/18 13:31:00;;;;;;;5.57;2.40;;;;;34.00;97114.00;;;;8412225;28;20250;-71
2022/05/18 13:35:25;;;;;;;2.17;1.98;;;;;34.60;97108.00;;;;8405357;28;20226;-72
2022/05/18 13:39:37;;;;;;;5.05;2.40;;;;;35.20;97106.00;;;;8411461;28;20310;-69
2022/05/18 13:43:42;;;;;;;2.30;2.17;;;;;35.50;97105.00;;;;8411024;28;20228;-69
2022/05/18 13:47:49;;;;;;;3.60;2.30;;;;;35.50;97105.00;;;;8405557;28;20220;-70
2022/05/18 13:51:57;;;;;;;3.22;2.20;;;;;35.70;97094.00;;;;8403927;28;20707;-68
2022/05/18 13:56:11;;;;;;;2.17;2.00;;;;;35.80;97092.00;;;;8411269;28;20310;-68
2022/05/18 14:00:20;;;;;;;3.20;1.92;;;;;36.00;97092.00;;;;8404735;28;20314;-69
2022/05/18 14:04:32;;;;;;;3.97;2.05;;;;;36.10;97084.00;;;;8412251;28;20255;-68
2022/05/18 14:08:59;;;;;;;4.93;2.17;;;;;36.10;97086.00;;;;8406611;28;20223;-68
2022/05/18 14:13:04;;;;;;;3.17;2.10;;;;;35.90;97094.00;;;;8407179;28;20255;-68
2022/05/18 14:17:12;;;;;;;2.78;2.00;;;;;35.90;97092.00;;;;8403850;28;20219;-70
2022/05/18 14:21:30;;;;;;;2.35;1.95;;;;;35.90;97083.00;;;;8405193;28;20222;-68
2022/05/18 14:25:40;;;;;;;4.25;1.92;;;;;35.90;97079.00;;;;8418012;28;20238;-70
2022/05/18 14:29:49;;;;;;;4.68;2.30;;;;;35.80;97090.00;;;;8411795;28;20254;-67
2022/05/18 14:33:56;;;;;;;3.08;2.00;;;;;35.70;97081.00;;;;8415897;28;20255;-68
2022/05/18 14:38:02;;;;;;;3.38;1.90;;;;;35.70;97084.00;;;;8410828;28;20310;-67
2022/05/18 14:42:09;;;;;;;2.35;1.92;;;;;35.60;97082.00;;;;8413054;28;20219;-66
2022/05/18 14:46:21;;;;;;;7.68;1.80;;;;;35.60;97078.00;;;;8414655;28;20234;-68
2022/05/18 14:50:29;;;;;;;2.83;2.00;;;;;35.40;97076.00;;;;8403655;28;20216;-70
2022/05/18 14:54:36;;;;;;;2.35;2.08;;;;;35.60;97074.00;;;;8413450;28;20231;-66
2022/05/18 14:58:49;;;;;;;4.47;1.80;;;;;35.80;97069.00;;;;8404369;28;20253;-69
2022/05/18 15:02:58;;;;;;;3.40;1.98;;;;;35.70;97061.00;;;;8403922;28;20967;-66
2022/05/18 15:07:08;;;;;;;2.40;2.20;;;;;35.20;97064.00;;;;8407381;28;20701;-69
2022/05/18 15:11:14;;;;;;;4.13;2.00;;;;;35.10;97069.00;;;;8404416;28;20218;-66
2022/05/18 15:15:27;;;;;;;2.30;2.05;;;;;34.80;97074.00;;;;8412375;28;20231;-69
2022/05/18 15:19:33;;;;;;;2.25;2.00;;;;;34.70;97073.00;;;;8417581;28;20225;-67
2022/05/18 15:23:43;;;;;;;3.25;1.80;;;;;34.60;97067.00;;;;8413602;28;20233;-66
2022/05/18 15:27:47;;;;;;;5.28;2.33;;;;;34.40;97068.00;;;;8415077;28;20228;-66
2022/05/18 15:31:53;;;;;;;3.50;2.25;;;;;34.30;97066.00;;;;8400395;28;20246;-66
2022/05/18 15:35:59;;;;;;;5.65;2.10;;;;;34.50;97063.00;;;;8403266;28;20237;-68
2022/05/18 15:40:03;;;;;;;2.30;2.08;;;;;34.60;97062.00;;;;8413156;28;20228;-66
2022/05/18 15:44:06;;;;;;;2.63;2.00;;;;;34.70;97071.00;;;;8410445;28;20913;-67
2022/05/18 15:48:11;;;;;;;4.10;1.70;;;;;34.60;97072.00;;;;8411625;28;20225;-68
2022/05/18 15:52:16;;;;;;;3.15;2.10;;;;;34.50;97063.00;;;;8407111;28;20845;-65
2022/05/18 15:56:24;;;;;;;2.28;2.00;;;;;34.30;97071.00;;;;8409169;28;20332;-68
2022/05/18 16:00:29;;;;;;;2.33;2.00;;;;;34.10;97067.00;;;;8412255;28;20233;-67
2022/05/18 16:04:33;;;;;;;4.50;2.20;;;;;33.90;97063.00;;;;8413635;28;20261;-67
2022/05/18 16:08:40;;;;;;;3.67;2.42;;;;;33.80;97067.00;;;;8414664;28;20306;-67
2022/05/18 16:12:46;;;;;;;2.42;2.10;;;;;33.80;97066.00;;;;8405501;28;20250;-67
2022/05/18 16:16:49;;;;;;;2.97;2.20;;;;;33.70;97059.00;;;;8416988;28;20246;-67
2022/05/18 16:20:56;;;;;;;2.50;2.08;;;;;33.50;97065.00;;;;8408422;28;20231;-67
2022/05/18 16:25:27;;;;;;;2.30;2.15;;;;;33.70;97066.00;;;;8413976;28;20235;-66
2022/05/18 16:29:32;;;;;;;2.03;1.92;;;;;33.80;97062.00;;;;8412994;28;20227;-67
2022/05/18 16:33:36;;;;;;;4.00;2.20;;;;;33.80;97059.00;;;;8405376;28;20230;-67
2022/05/18 16:37:41;;;;;;;5.32;2.20;;;;;33.90;97060.00;;;;8407091;28;20223;-68
2022/05/18 16:41:45;;;;;;;5.03;2.33;;;;;34.00;97060.00;;;;8406063;28;20301;-67
2022/05/18 16:45:48;;;;;;;3.70;1.92;;;;;33.90;97058.00;;;;8393377;28;20231;-67
2022/05/18 16:49:52;;;;;;;4.90;2.28;;;;;33.90;97057.00;;;;8408063;28;20313;-68
2022/05/18 16:53:56;;;;;;;3.63;2.10;;;;;34.10;97058.00;;;;8414111;28;20219;-68
2022/05/18 16:58:00;;;;;;;4.40;2.13;;;;;34.20;97054.00;;;;8413979;28;20227;-68
2022/05/18 17:02:04;;;;;;;4.47;2.30;;;;;34.20;97061.00;;;;8413282;28;20226;-68
2022/05/18 17:06:10;;;;;;;2.50;2.30;;;;;34.20;97063.00;;;;8409233;28;20246;-68
2022/05/18 17:10:14;;;;;;;3.45;2.50;;;;;34.00;97053.00;;;;8412883;28;20239;-68
2022/05/18 17:14:21;;;;;;;5.07;2.40;;;;;33.80;97054.00;;;;8406510;28;20227;-69
2022/05/18 17:18:24;;;;;;;2.72;2.22;;;;;33.40;97058.00;;;;8412591;28;20753;-68
2022/05/18 17:22:29;;;;;;;2.47;2.28;;;;;33.00;97052.00;;;;8414186;28;20227;-68
2022/05/18 17:26:38;;;;;;;2.30;2.13;;;;;32.60;97051.00;;;;8414057;28;20317;-68
2022/05/18 17:30:41;;;;;;;2.80;1.98;;;;;32.20;97053.00;;;;8406436;28;20243;-67
2022/05/18 17:34:44;;;;;;;3.35;2.30;;;;;31.90;97053.00;;;;8408337;28;20223;-68
2022/05/18 17:38:48;;;;;;;3.60;1.92;;;;;31.60;97049.00;;;;8408626;28;20305;-68
2022/05/18 17:42:52;;;;;;;6.38;2.20;;;;;31.30;97054.00;;;;8413413;28;20227;-68
2022/05/18 17:46:58;;;;;;;4.97;2.42;;;;;30.90;97056.00;;;;8412719;28;20231;-67
2022/05/18 17:51:12;;;;;;;3.53;2.50;;;;;30.50;97053.00;;;;8404227;28;20222;-68
2022/05/18 17:55:17;;;;;;;3.97;2.20;;;;;29.90;97051.00;;;;8411915;28;20218;-68
2022/05/18 17:59:22;;;;;;;4.75;2.38;;;;;29.00;97048.00;;;;8410101;28;20226;-67
2022/05/18 18:03:28;;;;;;;2.50;2.30;;;;;28.30;97050.00;;;;8416540;28;20306;-68
2022/05/18 18:07:34;;;;;;;4.60;2.40;;;;;27.70;97051.00;;;;8419147;28;20223;-67
2022/05/18 18:11:37;;;;;;;3.10;2.38;;;;;27.10;97051.00;;;;8403951;28;20232;-68
2022/05/18 18:15:43;;;;;;;3.58;2.60;;;;;26.50;97045.00;;;;8411916;28;20231;-68
2022/05/18 18:19:49;;;;;;;4.80;2.40;;;;;26.10;97042.00;;;;8414034;28;20591;-69
2022/05/18 18:23:53;;;;;;;6.78;2.42;;;;;25.70;97042.00;;;;8417121;28;20226;-68
2022/05/18 18:27:57;;;;;;;3.88;2.10;;;;;25.30;97041.00;;;;8415515;28;20219;-68
2022/05/18 18:32:02;;;;;;;2.47;2.25;;;;;25.00;97042.00;;;;8415637;28;20218;-68
2022/05/18 18:36:08;;;;;;;3.80;2.63;;;;;24.60;97041.00;;;;8418091;28;20303;-69
2022/05/18 18:40:20;;;;;;;4.10;2.67;;;;;24.30;97041.00;;;;8416998;28;20207;-68
2022/05/18 18:44:24;;;;;;;3.35;2.38;;;;;24.00;97042.00;;;;8412914;28;20242;-66
2022/05/18 18:48:29;;;;;;;6.07;2.45;;;;;23.70;97039.00;;;;8415522;28;20530;-70
2022/05/18 18:56:57;;;;;;;2.60;2.40;;;;;23.10;97049.00;;;;8421050;28;20234;-73
2022/05/18 19:01:00;;;;;;;2.70;2.38;;;;;22.80;97047.00;;;;8403194;28;20311;-71
2022/05/18 19:05:08;;;;;;;7.75;3.30;;;;;22.40;97053.00;;;;8416201;28;20282;-69
2022/05/18 19:09:12;;;;;;;4.75;3.22;;;;;21.90;97054.00;;;;8429633;28;20253;-71
2022/05/18 19:13:17;;;;;;;8.38;2.88;;;;;21.50;97052.00;;;;8415575;28;20237;-70
2022/05/18 19:17:20;;;;;;;4.45;2.63;;;;;21.20;97053.00;;;;8408425;28;20659;-71
2022/05/18 19:21:25;;;;;;;3.17;2.97;;;;;20.90;97050.00;;;;8408119;28;20740;-70
2022/05/18 19:25:31;;;;;;;4.43;2.97;;;;;20.60;97059.00;;;;8409049;28;20646;-71
2022/05/18 19:29:34;;;;;;;6.85;3.10;;;;;20.20;97062.00;;;;8414234;28;20294;-71
2022/05/18 19:33:37;;;;;;;3.28;3.00;;;;;19.80;97063.00;;;;8412452;28;20273;-71
2022/05/18 19:37:42;;;;;;;4.57;3.35;;;;;19.40;97057.00;;;;8413981;28;20229;-70
2022/05/18 19:41:46;;;;;;;5.60;3.00;;;;;19.00;97071.00;;;;8412547;28;20223;-71
2022/05/18 19:45:51;;;;;;;4.50;2.90;;;;;18.80;97062.00;;;;8410921;28;20235;-72
2022/05/18 19:49:55;;;;;;;5.15;3.40;;;;;18.50;97067.00;;;;8414212;28;20622;-72
2022/05/18 19:53:59;;;;;;;5.95;3.28;;;;;18.30;97068.00;;;;8408538;28;20229;-72
2022/05/18 19:58:04;;;;;;;4.40;3.17;;;;;18.00;97071.00;;;;8411235;28;20223;-72
2022/05/18 20:02:09;;;;;;;5.05;3.53;;;;;17.80;97071.00;;;;8408950;28;20837;-73
2022/05/18 20:06:13;;;;;;;6.85;3.65;;;;;17.70;97071.00;;;;8410333;28;20227;-72
2022/05/18 20:10:18;;;;;;;6.68;3.38;;;;;17.50;97072.00;;;;8414486;28;20233;-72
2022/05/18 20:14:21;;;;;;;5.38;3.30;;;;;17.30;97074.00;;;;8411248;28;20371;-72
2022/05/18 20:18:28;;;;;;;6.70;3.38;;;;;17.20;97080.00;;;;8404949;28;20562;-73
2022/05/18 20:22:31;;;;;;;8.77;3.80;;;;;17.10;97068.00;;;;8414481;28;20318;-73
2022/05/18 20:26:38;;;;;;;7.65;3.60;;;;;17.00;97062.00;;;;8412740;28;20235;-73
2022/05/18 20:30:41;;;;;;;8.38;3.72;;;;;16.80;97067.00;;;;8409324;28;20255;-72
2022/05/18 20:34:44;;;;;;;4.18;3.47;;;;;16.70;97061.00;;;;8415130;28;20223;-73
2022/05/18 20:38:48;;;;;;;5.45;3.33;;;;;16.60;97055.00;;;;8413405;28;20717;-72
2022/05/18 20:42:54;;;;;;;4.97;3.78;;;;;16.60;97057.00;;;;8409976;28;20270;-72
2022/05/18 20:47:00;;;;;;;3.92;3.53;;;;;16.60;97056.00;;;;8409123;28;20313;-72
2022/05/18 20:51:04;;;;;;;3.67;3.30;;;;;16.60;97057.00;;;;8412474;28;20241;-72